Time;durP1;ratioP1;P1;durP2;ratioP2;P2;SDS_P1;SDS_P2;PMS_P1;PMS_P2;Temp;Humidity;BMP_temperature;BMP_pressure;BME280_temperature;BME280_humidity;BME280_pressure;Samples;Min_cycle;Max_cycle;Signal;HPM_P1;HPM_P2
2023/05/26 00:00:06;;;;;;;10.33;4.07;;;14.90;1.00;;;;;;6300786;22;20339;-77
2023/05/26 00:02:36;;;;;;;9.60;3.75;;;14.90;1.00;;;;;;6300799;22;20351;-74
2023/05/26 00:05:03;;;;;;;10.57;3.90;;;15.00;1.00;;;;;;6300514;22;20450;-74
2023/05/26 00:07:28;;;;;;;10.63;4.00;;;15.00;1.00;;;;;;6300795;22;20354;-74
2023/05/26 00:09:54;;;;;;;18.80;4.20;;;15.20;1.00;;;;;;6273211;22;20451;-74
2023/05/26 00:12:20;;;;;;;9.70;3.53;;;15.30;1.00;;;;;;6301750;22;20470;-74
2023/05/26 00:14:46;;;;;;;11.07;3.67;;;15.30;1.00;;;;;;6301975;22;20439;-74
2023/05/26 00:17:12;;;;;;;10.93;3.70;;;15.30;1.00;;;;;;6273792;22;20385;-74
2023/05/26 00:19:38;;;;;;;12.80;3.93;;;15.60;1.00;;;;;;6300601;22;20358;-74
2023/05/26 00:22:04;;;;;;;10.75;3.85;;;15.20;1.00;;;;;;6273968;22;20796;-77
2023/05/26 00:24:30;;;;;;;9.45;3.80;;;15.20;1.00;;;;;;6301922;22;20350;-74
2023/05/26 00:26:56;;;;;;;10.00;4.17;;;15.20;1.00;;;;;;6272102;22;20722;-74
2023/05/26 00:29:21;;;;;;;10.77;3.80;;;16.20;1.00;;;;;;6273649;22;20361;-75
2023/05/26 00:31:47;;;;;;;11.10;4.00;;;15.30;1.00;;;;;;6301303;22;20365;-74
2023/05/26 00:34:12;;;;;;;10.25;4.22;;;15.10;1.00;;;;;;6299338;22;20410;-74
2023/05/26 00:36:38;;;;;;;12.43;4.23;;;15.10;1.00;;;;;;6272846;22;20689;-74
2023/05/26 00:39:03;;;;;;;10.33;4.37;;;16.30;1.00;;;;;;6273312;22;20366;-75
2023/05/26 00:41:29;;;;;;;12.27;4.28;;;15.10;1.00;;;;;;6273523;22;20366;-74
2023/05/26 00:43:55;;;;;;;12.13;4.05;;;16.00;1.00;;;;;;6273555;22;20359;-73
2023/05/26 00:46:20;;;;;;;10.47;4.23;;;15.10;1.00;;;;;;6301207;22;20356;-74
2023/05/26 00:48:46;;;;;;;10.23;3.88;;;15.80;1.00;;;;;;6272676;22;20366;-74
2023/05/26 00:51:12;;;;;;;13.80;3.80;;;15.20;1.00;;;;;;6300715;22;21073;-74
2023/05/26 00:53:43;;;;;;;10.85;3.60;;;15.20;1.00;;;;;;6300376;22;20475;-74
2023/05/26 00:56:11;;;;;;;11.90;4.25;;;15.20;1.00;;;;;;6272970;22;20823;-74
2023/05/26 00:58:37;;;;;;;10.18;4.00;;;15.20;1.00;;;;;;6300432;22;20354;-74
2023/05/26 01:01:02;;;;;;;11.33;4.23;;;15.70;1.00;;;;;;6301807;22;20416;-73
2023/05/26 01:03:28;;;;;;;12.80;4.20;;;15.30;1.00;;;;;;6298525;22;20693;-73
2023/05/26 01:05:54;;;;;;;9.63;4.20;;;15.20;1.00;;;;;;6301089;22;20829;-74
2023/05/26 01:08:20;;;;;;;11.32;4.20;;;15.40;1.00;;;;;;6272636;22;20437;-73
2023/05/26 01:10:45;;;;;;;13.73;3.67;;;16.00;1.00;;;;;;6300785;22;20457;-73
2023/05/26 01:13:37;;;;;;;11.20;3.70;;;15.30;1.00;;;;;;6300037;22;20409;-73
2023/05/26 01:16:08;;;;;;;9.80;3.53;;;15.30;1.00;;;;;;6299510;22;20358;-73
2023/05/26 01:18:52;;;;;;;8.73;3.20;;;15.20;1.00;;;;;;6299722;22;20358;-77
2023/05/26 01:21:21;;;;;;;10.07;3.50;;;15.20;1.00;;;;;;6301131;22;20377;-73
2023/05/26 01:24:11;;;;;;;10.63;4.25;;;15.10;1.00;;;;;;6300840;22;20357;-73
2023/05/26 01:27:03;;;;;;;9.35;3.80;;;15.10;1.00;;;;;;6300275;22;20347;-74
2023/05/26 01:29:32;;;;;;;10.35;3.70;;;15.00;1.00;;;;;;6272916;22;20754;-73
2023/05/26 01:32:09;;;;;;;9.85;4.07;;;15.10;1.00;;;;;;6272482;22;20362;-74
2023/05/26 01:34:35;;;;;;;10.00;4.10;;;15.10;1.00;;;;;;6300804;22;20890;-74
2023/05/26 01:37:00;;;;;;;10.18;3.80;;;15.20;1.00;;;;;;6301322;22;20331;-74
2023/05/26 01:39:26;;;;;;;13.98;4.30;;;15.20;1.00;;;;;;6300996;22;20362;-74
2023/05/26 01:42:26;;;;;;;11.30;3.87;;;16.90;1.00;;;;;;6300223;22;20374;-74
2023/05/26 01:45:00;;;;;;;12.23;4.03;;;15.20;1.00;;;;;;6273118;22;20428;-74
2023/05/26 01:47:27;;;;;;;10.77;3.80;;;15.30;1.00;;;;;;6300287;22;20422;-76
2023/05/26 01:49:55;;;;;;;10.55;4.38;;;16.30;1.00;;;;;;6272541;22;20385;-76
2023/05/26 01:52:21;;;;;;;10.05;3.92;;;16.00;1.00;;;;;;6300211;22;20370;-76
2023/05/26 01:54:56;;;;;;;9.40;4.03;;;15.40;1.00;;;;;;6302046;22;20389;-76
2023/05/26 01:57:23;;;;;;;14.95;4.13;;;15.40;1.00;;;;;;6247198;22;20370;-73
2023/05/26 01:59:52;;;;;;;9.13;3.60;;;15.40;1.00;;;;;;6301548;22;20347;-75
2023/05/26 02:02:17;;;;;;;11.23;4.10;;;15.40;1.00;;;;;;6273642;22;20423;-75
2023/05/26 02:04:43;;;;;;;10.18;3.80;;;15.30;1.00;;;;;;6273593;22;20794;-75
2023/05/26 02:07:08;;;;;;;10.20;4.53;;;15.30;1.00;;;;;;6272877;22;20453;-75
2023/05/26 02:09:35;;;;;;;9.63;3.80;;;15.50;1.00;;;;;;6271944;22;20397;-78
2023/05/26 02:12:01;;;;;;;9.88;3.83;;;15.30;1.00;;;;;;6274044;22;20419;-75
2023/05/26 02:14:26;;;;;;;9.13;3.70;;;15.30;1.00;;;;;;6301009;22;20371;-75
2023/05/26 02:16:52;;;;;;;11.60;4.07;;;15.40;1.00;;;;;;6271658;22;20351;-75
2023/05/26 02:19:18;;;;;;;11.60;4.50;;;15.90;1.00;;;;;;6299428;22;20366;-75
2023/05/26 02:21:44;;;;;;;10.63;3.60;;;16.30;1.00;;;;;;6272300;22;20419;-75
2023/05/26 02:24:09;;;;;;;12.85;4.57;;;15.20;1.00;;;;;;6299422;22;20757;-75
2023/05/26 02:26:35;;;;;;;11.00;3.85;;;15.20;1.00;;;;;;6298745;22;21083;-76
2023/05/26 02:29:01;;;;;;;11.87;4.03;;;15.90;1.00;;;;;;6300693;22;20354;-75
2023/05/26 02:31:27;;;;;;;11.10;4.40;;;15.30;1.00;;;;;;6299851;22;20365;-75
2023/05/26 02:33:52;;;;;;;10.23;4.50;;;15.30;1.00;;;;;;6274727;22;20402;-75
2023/05/26 02:36:18;;;;;;;12.55;4.10;;;15.30;1.00;;;;;;6302780;22;20358;-75
2023/05/26 02:38:43;;;;;;;14.38;4.75;;;15.40;1.00;;;;;;6302349;22;20339;-75
2023/05/26 02:41:09;;;;;;;11.53;4.57;;;15.30;1.00;;;;;;6302352;22;20371;-75
2023/05/26 02:43:37;;;;;;;9.40;4.03;;;15.30;1.00;;;;;;6274605;22;20883;-76
2023/05/26 02:46:03;;;;;;;10.82;4.22;;;15.90;1.00;;;;;;6301446;22;20366;-76
2023/05/26 02:48:28;;;;;;;9.15;3.85;;;15.40;1.00;;;;;;6301158;22;20350;-75
2023/05/26 02:50:55;;;;;;;12.60;4.40;;;15.40;1.00;;;;;;6301046;22;20773;-75
2023/05/26 02:53:21;;;;;;;10.23;4.70;;;15.70;1.00;;;;;;6301937;22;20942;-75
2023/05/26 02:55:47;;;;;;;13.05;4.30;;;15.50;1.00;;;;;;6301114;22;20355;-75
2023/05/26 02:58:13;;;;;;;11.80;4.30;;;15.50;1.00;;;;;;6273926;22;20867;-75
2023/05/26 03:00:40;;;;;;;11.68;4.40;;;15.50;1.00;;;;;;6302227;22;20351;-75
2023/05/26 03:03:06;;;;;;;11.77;4.60;;;15.50;1.00;;;;;;6301132;22;20361;-76
2023/05/26 03:05:32;;;;;;;11.77;4.30;;;15.50;1.00;;;;;;6274583;22;20382;-75
2023/05/26 03:07:58;;;;;;;10.73;4.75;;;15.30;1.00;;;;;;6301629;22;20824;-75
2023/05/26 03:10:24;;;;;;;10.30;4.60;;;16.40;1.00;;;;;;6273886;22;20386;-76
2023/05/26 03:12:49;;;;;;;9.20;4.00;;;15.20;1.00;;;;;;6275402;22;20405;-75
2023/05/26 03:15:15;;;;;;;11.93;4.57;;;15.10;1.00;;;;;;6301665;22;20392;-75
2023/05/26 03:17:40;;;;;;;10.90;3.63;;;15.00;1.00;;;;;;6301530;22;20889;-74
2023/05/26 03:20:06;;;;;;;11.13;4.10;;;14.90;1.00;;;;;;6274256;22;20393;-74
2023/05/26 03:22:32;;;;;;;9.73;4.30;;;14.90;1.00;;;;;;6274594;22;20385;-74
2023/05/26 03:24:57;;;;;;;12.38;4.13;;;14.80;1.00;;;;;;6301296;22;20362;-75
2023/05/26 03:27:23;;;;;;;14.35;4.57;;;14.80;1.00;;;;;;6301434;22;20343;-74
2023/05/26 03:29:49;;;;;;;12.13;4.30;;;14.70;1.00;;;;;;6273784;22;20374;-74
2023/05/26 03:32:15;;;;;;;10.90;4.63;;;14.60;1.00;;;;;;6273627;22;20423;-76
2023/05/26 03:34:41;;;;;;;10.10;4.70;;;14.60;1.00;;;;;;6274684;22;20841;-74
2023/05/26 03:37:06;;;;;;;10.83;4.50;;;14.60;1.00;;;;;;6274367;22;20430;-74
2023/05/26 03:39:32;;;;;;;13.17;5.10;;;14.60;1.00;;;;;;6302716;22;20350;-74
2023/05/26 03:41:58;;;;;;;10.43;5.05;;;15.00;1.00;;;;;;6271677;22;20386;-74
2023/05/26 03:44:24;;;;;;;10.83;4.47;;;14.50;1.00;;;;;;6301901;22;20358;-80
2023/05/26 03:46:50;;;;;;;10.85;4.20;;;14.50;1.00;;;;;;6302847;22;20355;-76
2023/05/26 03:49:15;;;;;;;12.45;4.80;;;14.50;1.00;;;;;;6306056;22;20353;-79
2023/05/26 03:51:41;;;;;;;10.80;4.80;;;14.50;1.00;;;;;;6283648;22;20426;-81
2023/05/26 03:54:07;;;;;;;13.63;3.92;;;14.50;1.00;;;;;;6282453;22;20386;-81
2023/05/26 03:56:32;;;;;;;12.30;4.13;;;14.50;1.00;;;;;;6282106;22;20446;-81
2023/05/26 03:58:58;;;;;;;13.23;4.40;;;14.50;1.00;;;;;;6310935;22;20377;-81
2023/05/26 04:01:25;;;;;;;10.80;4.70;;;14.50;1.00;;;;;;6285282;22;20358;-80
2023/05/26 04:03:50;;;;;;;11.38;4.63;;;14.40;1.00;;;;;;6284573;22;20358;-80
2023/05/26 04:06:16;;;;;;;12.70;4.70;;;14.40;1.00;;;;;;6310121;22;20389;-80
2023/05/26 04:08:42;;;;;;;11.35;4.68;;;14.40;1.00;;;;;;6281266;22;20359;-80
2023/05/26 04:11:07;;;;;;;11.30;4.60;;;14.40;48.00;;;;;;6278723;22;20412;-79
2023/05/26 04:13:38;;;;;;;10.53;4.40;;;14.30;99.90;;;;;;6276985;22;20505;-80
2023/05/26 04:16:04;;;;;;;11.80;4.90;;;14.80;99.90;;;;;;6307170;22;20349;-79
2023/05/26 04:18:29;;;;;;;9.45;4.22;;;14.20;99.90;;;;;;6277937;22;20354;-79
2023/05/26 04:20:55;;;;;;;13.00;5.00;;;14.20;99.90;;;;;;6276340;22;20800;-79
2023/05/26 04:23:20;;;;;;;13.70;5.30;;;14.30;99.90;;;;;;6303825;22;20374;-78
2023/05/26 04:25:46;;;;;;;14.57;5.30;;;14.20;99.90;;;;;;6303052;22;20476;-78
2023/05/26 04:28:11;;;;;;;11.15;4.30;;;14.40;99.90;;;;;;6274465;22;20427;-78
2023/05/26 04:30:39;;;;;;;11.97;4.90;;;14.90;99.90;;;;;;6273938;22;20358;-79
2023/05/26 04:33:05;;;;;;;13.35;4.93;;;15.70;99.90;;;;;;6302689;22;20892;-77
2023/05/26 04:35:32;;;;;;;9.27;4.38;;;14.60;53.90;;;;;;6275153;22;20350;-76
2023/05/26 04:37:58;;;;;;;12.20;4.60;;;14.60;99.90;;;;;;6248684;22;20433;-75
2023/05/26 04:40:24;;;;;;;12.15;5.15;;;14.70;71.40;;;;;;6274184;22;20370;-75
2023/05/26 04:42:50;;;;;;;9.93;4.80;;;15.70;46.10;;;;;;6273414;22;20449;-75
2023/05/26 04:45:15;;;;;;;12.00;4.95;;;15.60;1.00;;;;;;6301660;22;20698;-76
2023/05/26 04:47:42;;;;;;;14.88;5.00;;;14.90;1.00;;;;;;6274310;22;20358;-76
2023/05/26 04:50:16;;;;;;;12.40;6.03;;;15.10;1.00;;;;;;6301195;22;20441;-76
2023/05/26 04:52:42;;;;;;;11.43;5.28;;;15.30;1.00;;;;;;6300902;22;20427;-76
2023/05/26 04:55:08;;;;;;;11.87;5.10;;;15.90;1.00;;;;;;6272417;22;20367;-76
2023/05/26 04:57:34;;;;;;;13.27;5.03;;;16.60;1.00;;;;;;6299945;22;20411;-76
2023/05/26 05:00:00;;;;;;;14.05;5.65;;;18.90;1.00;;;;;;6273036;22;20824;-73
2023/05/26 05:02:26;;;;;;;12.88;5.38;;;19.30;99.90;;;;;;6273407;22;20358;-73
2023/05/26 05:04:52;;;;;;;16.02;5.25;;;20.30;99.90;;;;;;6274332;22;20369;-76
2023/05/26 05:07:18;;;;;;;12.20;4.50;;;21.50;99.90;;;;;;6274001;22;20442;-76
2023/05/26 05:09:44;;;;;;;12.27;4.75;;;21.40;99.90;;;;;;6301483;22;20384;-76
2023/05/26 05:12:09;;;;;;;14.02;5.57;;;20.90;99.90;;;;;;6273696;22;20359;-76
2023/05/26 05:14:35;;;;;;;14.63;4.80;;;21.50;99.90;;;;;;6275725;22;20480;-77
2023/05/26 05:17:00;;;;;;;11.90;4.80;;;22.30;99.90;;;;;;6275497;22;20349;-76
2023/05/26 05:19:26;;;;;;;10.40;4.70;;;22.10;99.90;;;;;;6302652;22;20362;-76
2023/05/26 05:21:52;;;;;;;10.70;5.30;;;22.10;99.90;;;;;;6301857;22;20351;-76
2023/05/26 05:24:17;;;;;;;11.00;5.03;;;22.60;99.90;;;;;;6300885;22;20350;-74
2023/05/26 05:26:43;;;;;;;13.40;6.07;;;23.50;99.90;;;;;;6284771;22;20358;-74
2023/05/26 05:29:08;;;;;;;11.93;5.47;;;24.50;99.90;;;;;;6308676;22;20351;-76
2023/05/26 05:31:34;;;;;;;11.57;6.60;;;25.40;99.90;;;;;;6274044;22;20399;-80
2023/05/26 05:33:59;;;;;;;13.73;7.85;;;26.70;99.90;;;;;;6302936;22;20469;-77
2023/05/26 05:36:25;;;;;;;13.65;8.00;;;26.10;99.90;;;;;;6301768;22;20354;-77
2023/05/26 05:38:51;;;;;;;14.63;9.00;;;26.80;99.90;;;;;;6272724;22;20366;-76
2023/05/26 05:41:17;;;;;;;14.45;8.10;;;26.70;99.90;;;;;;6272324;22;20469;-76
2023/05/26 05:43:42;;;;;;;13.32;8.80;;;26.70;99.90;;;;;;6272892;22;20366;-76
2023/05/26 05:46:08;;;;;;;13.47;8.33;;;26.50;99.90;;;;;;6274581;22;20697;-76
2023/05/26 05:48:33;;;;;;;12.80;8.60;;;26.40;99.90;;;;;;6302295;22;20355;-76
2023/05/26 05:51:00;;;;;;;12.20;8.23;;;26.40;99.90;;;;;;6275073;22;20377;-76
2023/05/26 05:53:26;;;;;;;11.48;9.07;;;26.50;99.90;;;;;;6274027;22;20418;-76
2023/05/26 05:55:51;;;;;;;12.90;8.90;;;26.40;99.90;;;;;;6274132;22;20725;-77
2023/05/26 05:58:17;;;;;;;17.92;10.13;;;26.60;99.90;;;;;;6302193;22;20393;-74
2023/05/26 06:00:42;;;;;;;14.40;8.60;;;25.60;99.90;;;;;;6301633;22;20457;-74
2023/05/26 06:03:08;;;;;;;12.97;8.20;;;24.50;99.90;;;;;;6301126;22;20369;-75
2023/05/26 06:05:33;;;;;;;12.30;7.40;;;23.00;99.90;;;;;;6274757;22;20351;-74
2023/05/26 06:07:59;;;;;;;13.90;7.20;;;23.20;99.90;;;;;;6275838;22;20671;-74
2023/05/26 06:10:25;;;;;;;13.73;7.50;;;23.00;99.90;;;;;;6275911;22;20824;-74
2023/05/26 06:12:50;;;;;;;13.90;7.60;;;23.40;99.90;;;;;;6302252;22;20426;-75
2023/05/26 06:15:18;;;;;;;13.40;7.23;;;24.00;99.90;;;;;;6301735;22;20370;-74
2023/05/26 06:17:44;;;;;;;11.80;7.60;;;25.30;99.90;;;;;;6302578;22;20816;-76
2023/05/26 06:20:10;;;;;;;15.88;8.60;;;25.60;99.90;;;;;;6275381;22;20386;-77
2023/05/26 06:22:36;;;;;;;12.55;9.02;;;26.70;99.90;;;;;;6303272;22;20361;-77
2023/05/26 06:25:03;;;;;;;13.88;9.57;;;27.70;99.90;;;;;;6303880;22;20389;-77
2023/05/26 06:27:29;;;;;;;14.45;9.80;;;28.00;99.90;;;;;;6274930;22;20365;-77
2023/05/26 06:29:54;;;;;;;10.85;8.90;;;27.00;99.90;;;;;;6275170;22;20386;-76
2023/05/26 06:32:20;;;;;;;12.70;9.03;;;27.20;99.90;;;;;;6275966;22;20357;-74
2023/05/26 06:34:46;;;;;;;12.33;8.40;;;25.90;99.90;;;;;;6277461;22;20401;-76
2023/05/26 06:37:12;;;;;;;14.35;8.60;;;25.10;99.90;;;;;;6275355;22;20676;-75
2023/05/26 06:39:38;;;;;;;12.40;7.80;;;24.60;99.90;;;;;;6276041;22;20477;-76
2023/05/26 06:42:03;;;;;;;14.50;8.80;;;25.10;99.90;;;;;;6275561;22;20716;-76
2023/05/26 06:44:29;;;;;;;12.45;8.95;;;25.30;99.90;;;;;;6276243;22;20374;-76
2023/05/26 06:46:55;;;;;;;12.70;9.00;;;26.10;99.90;;;;;;6302855;22;20794;-76
2023/05/26 06:49:21;;;;;;;14.37;9.00;;;25.90;99.90;;;;;;6275042;22;20382;-76
2023/05/26 06:51:46;;;;;;;13.60;8.20;;;25.40;99.90;;;;;;6301598;22;20681;-75
2023/05/26 06:54:12;;;;;;;14.17;8.80;;;25.90;99.90;;;;;;6303088;22;20412;-76
2023/05/26 06:56:37;;;;;;;16.17;9.25;;;25.00;99.90;;;;;;6303897;22;20343;-76
2023/05/26 06:59:03;;;;;;;16.37;9.53;;;24.80;99.90;;;;;;6303875;22;20359;-76
2023/05/26 07:01:28;;;;;;;11.40;8.35;;;24.50;99.90;;;;;;6276108;22;20351;-76
2023/05/26 07:03:54;;;;;;;12.70;9.50;;;25.70;99.90;;;;;;6303640;22;20347;-76
2023/05/26 07:06:19;;;;;;;12.90;8.60;;;27.50;99.90;;;;;;6302264;22;20354;-76
2023/05/26 07:08:45;;;;;;;12.77;9.77;;;27.50;99.90;;;;;;6303058;22;20361;-76
2023/05/26 07:11:11;;;;;;;13.70;5.57;;;27.70;99.90;;;;;;6275770;22;20804;-76
2023/05/26 07:13:36;;;;;;;12.98;5.30;;;27.60;99.90;;;;;;6275521;22;20394;-76
2023/05/26 07:16:02;;;;;;;13.07;6.07;;;27.50;99.90;;;;;;6303634;22;20855;-76
2023/05/26 07:18:28;;;;;;;14.43;5.65;;;25.90;99.90;;;;;;6302556;22;20825;-76
2023/05/26 07:20:53;;;;;;;12.77;5.18;;;26.50;99.90;;;;;;6302084;22;21476;-76
2023/05/26 07:23:19;;;;;;;16.10;8.35;;;26.50;99.90;;;;;;6302582;22;20353;-76
2023/05/26 07:25:44;;;;;;;18.37;13.53;;;27.10;99.90;;;;;;6274091;22;20363;-76
2023/05/26 07:28:10;;;;;;;14.73;10.00;;;27.10;99.90;;;;;;6273355;22;20354;-77
2023/05/26 07:30:36;;;;;;;13.63;7.20;;;27.70;99.90;;;;;;6302245;22;20649;-76
2023/05/26 07:33:01;;;;;;;14.23;12.63;;;28.20;99.90;;;;;;6275185;22;20382;-76
2023/05/26 07:35:27;;;;;;;12.32;9.35;;;28.70;99.90;;;;;;6302275;22;20343;-76
2023/05/26 07:37:52;;;;;;;15.17;10.20;;;29.40;99.90;;;;;;6275358;22;20424;-76
2023/05/26 07:40:18;;;;;;;12.50;6.60;;;29.50;99.90;;;;;;6302478;22;20362;-76
2023/05/26 07:42:44;;;;;;;14.65;5.30;;;29.90;99.90;;;;;;6302335;22;20440;-76
2023/05/26 07:45:10;;;;;;;17.23;8.55;;;30.90;99.90;;;;;;6275298;22;20362;-76
2023/05/26 07:47:35;;;;;;;14.20;10.32;;;30.30;99.90;;;;;;6275431;22;20400;-76
2023/05/26 07:50:02;;;;;;;14.87;9.73;;;29.00;99.90;;;;;;6303755;22;20488;-76
2023/05/26 07:52:28;;;;;;;15.93;9.13;;;29.30;99.90;;;;;;6303081;22;20343;-76
2023/05/26 07:54:53;;;;;;;15.77;9.70;;;28.60;99.90;;;;;;6302601;22;20365;-76
2023/05/26 07:57:19;;;;;;;15.13;9.88;;;28.30;99.90;;;;;;6275317;22;20355;-76
2023/05/26 07:59:45;;;;;;;15.00;10.90;;;28.40;99.90;;;;;;6275157;22;20457;-76
2023/05/26 08:02:11;;;;;;;14.13;10.60;;;28.70;99.90;;;;;;6274866;22;20396;-76
2023/05/26 08:04:37;;;;;;;13.60;10.80;;;28.70;99.90;;;;;;6274393;22;20362;-76
2023/05/26 08:07:02;;;;;;;14.80;10.60;;;28.40;99.90;;;;;;6275412;22;20415;-76
2023/05/26 08:09:28;;;;;;;13.38;9.93;;;29.40;99.90;;;;;;6302322;22;20366;-76
2023/05/26 08:11:53;;;;;;;12.60;9.90;;;29.40;99.90;;;;;;6277507;22;20824;-76
2023/05/26 08:14:20;;;;;;;13.97;9.67;;;28.70;99.90;;;;;;6301956;22;20658;-76
2023/05/26 08:16:46;;;;;;;13.40;9.55;;;29.70;99.90;;;;;;6276514;22;20359;-76
2023/05/26 08:19:11;;;;;;;12.23;9.43;;;31.00;99.90;;;;;;6274952;22;20404;-76
2023/05/26 08:21:37;;;;;;;13.80;10.87;;;30.40;99.90;;;;;;6275282;22;20833;-76
2023/05/26 08:24:02;;;;;;;13.83;10.60;;;30.50;99.90;;;;;;6302182;22;20650;-76
2023/05/26 08:26:28;;;;;;;15.55;9.68;;;30.40;99.90;;;;;;6302911;22;20389;-76
2023/05/26 08:28:55;;;;;;;13.93;10.07;;;30.00;99.90;;;;;;6274722;22;20388;-76
2023/05/26 08:31:21;;;;;;;11.75;10.00;;;30.40;99.90;;;;;;6302470;22;20374;-76
2023/05/26 08:33:46;;;;;;;13.00;9.70;;;31.30;99.90;;;;;;6302540;22;20396;-76
2023/05/26 08:36:12;;;;;;;14.83;9.50;;;31.10;99.90;;;;;;6274726;22;20354;-76
2023/05/26 08:38:37;;;;;;;13.80;8.80;;;31.10;99.90;;;;;;6302084;22;20380;-74
2023/05/26 08:41:05;;;;;;;14.00;7.72;;;31.40;99.90;;;;;;6302157;22;20406;-76
2023/05/26 08:43:41;;;;;;;11.65;5.60;;;31.90;99.90;;;;;;6302529;22;20343;-76
2023/05/26 08:46:08;;;;;;;12.65;10.48;;;31.80;99.90;;;;;;6274905;22;20355;-76
2023/05/26 08:48:36;;;;;;;11.45;5.85;;;31.80;99.90;;;;;;6275096;22;20359;-80
2023/05/26 08:51:03;;;;;;;12.52;6.00;;;31.80;99.90;;;;;;6275495;22;20347;-76
2023/05/26 08:53:31;;;;;;;15.48;8.88;;;32.00;99.90;;;;;;6303573;22;20386;-76
2023/05/26 08:55:59;;;;;;;13.20;4.63;;;32.10;99.90;;;;;;6275215;22;20452;-77
2023/05/26 08:58:25;;;;;;;12.40;5.60;;;32.50;99.90;;;;;;6275164;22;20386;-76
2023/05/26 09:00:52;;;;;;;12.80;5.72;;;32.80;99.90;;;;;;6301799;22;20365;-76
2023/05/26 09:03:18;;;;;;;10.52;5.53;;;31.80;99.90;;;;;;6301604;22;20852;-76
2023/05/26 09:05:45;;;;;;;11.53;5.80;;;32.20;99.90;;;;;;6273433;22;20355;-76
2023/05/26 09:08:13;;;;;;;13.23;9.87;;;32.20;99.90;;;;;;6301256;22;20375;-76
2023/05/26 09:10:40;;;;;;;13.47;10.83;;;31.60;99.90;;;;;;6301720;22;20346;-76
2023/05/26 09:13:11;;;;;;;13.45;9.90;;;31.40;99.90;;;;;;6274618;22;20805;-76
2023/05/26 09:15:38;;;;;;;14.07;10.55;;;31.50;99.90;;;;;;6274251;22;20373;-77
2023/05/26 09:18:05;;;;;;;14.43;9.30;;;31.90;99.90;;;;;;6275039;22;20362;-76
2023/05/26 09:20:31;;;;;;;12.37;7.37;;;32.90;99.90;;;;;;6274559;22;20363;-76
2023/05/26 09:22:57;;;;;;;13.73;5.90;;;33.40;99.90;;;;;;6272423;22;20472;-76
2023/05/26 09:25:33;;;;;;;11.45;5.78;;;32.60;99.90;;;;;;6275600;22;20871;-76
2023/05/26 09:28:01;;;;;;;13.40;5.60;;;33.30;99.90;;;;;;6303279;22;20824;-77
2023/05/26 09:30:40;;;;;;;12.60;5.20;;;32.90;99.90;;;;;;6274799;22;20354;-76
2023/05/26 09:33:08;;;;;;;13.95;5.55;;;33.80;99.90;;;;;;6249498;22;20389;-78
2023/05/26 09:35:37;;;;;;;11.73;7.20;;;33.40;99.90;;;;;;6274557;22;20362;-76
2023/05/26 09:38:05;;;;;;;13.27;10.38;;;32.60;99.90;;;;;;6267567;22;20362;-76
2023/05/26 09:40:31;;;;;;;12.70;10.65;;;33.80;99.90;;;;;;6275395;22;20378;-76
2023/05/26 09:42:56;;;;;;;16.43;10.97;;;31.90;99.90;;;;;;6276507;22;20382;-76
2023/05/26 09:45:22;;;;;;;14.00;10.73;;;30.80;99.90;;;;;;6303094;22;20358;-77
2023/05/26 09:47:56;;;;;;;13.98;10.50;;;31.50;99.90;;;;;;6276507;22;20609;-76
2023/05/26 09:50:22;;;;;;;14.73;11.27;;;31.80;99.90;;;;;;6276145;22;20368;-76
2023/05/26 09:52:50;;;;;;;15.60;10.80;;;31.30;99.90;;;;;;6276402;22;20386;-76
2023/05/26 09:55:16;;;;;;;12.07;10.27;;;31.80;99.90;;;;;;6276859;22;20389;-76
2023/05/26 09:57:44;;;;;;;14.07;9.05;;;31.30;99.90;;;;;;6250781;22;20374;-76
2023/05/26 10:00:12;;;;;;;13.68;11.05;;;30.90;99.90;;;;;;6275162;22;21036;-76
2023/05/26 10:02:39;;;;;;;13.95;10.07;;;31.50;99.90;;;;;;6275707;22;20848;-76
2023/05/26 10:05:06;;;;;;;16.70;10.90;;;31.30;99.90;;;;;;6303680;22;20350;-76
2023/05/26 10:07:32;;;;;;;15.10;10.80;;;30.20;99.90;;;;;;6276477;22;20542;-76
2023/05/26 10:09:59;;;;;;;12.18;9.40;;;30.00;99.90;;;;;;6276781;22;20357;-76
2023/05/26 10:12:29;;;;;;;13.93;10.23;;;31.40;99.90;;;;;;6276070;22;20351;-76
2023/05/26 10:14:55;;;;;;;12.55;9.55;;;29.20;99.90;;;;;;6275921;22;20453;-76
2023/05/26 10:17:25;;;;;;;14.70;10.47;;;30.00;99.90;;;;;;6275940;22;20382;-77
2023/05/26 10:19:53;;;;;;;18.73;10.55;;;31.00;99.90;;;;;;6275992;22;20420;-76
2023/05/26 10:22:37;;;;;;;13.15;10.23;;;30.70;99.90;;;;;;6276140;22;20398;-76
2023/05/26 10:25:15;;;;;;;13.70;9.90;;;30.60;99.90;;;;;;6276128;22;20342;-76
2023/05/26 10:28:08;;;;;;;12.73;9.15;;;31.00;99.90;;;;;;6302621;22;20361;-76
2023/05/26 10:30:34;;;;;;;11.40;10.00;;;30.30;99.90;;;;;;6275780;22;20689;-76
2023/05/26 10:33:08;;;;;;;12.85;10.85;;;30.30;99.90;;;;;;6276005;22;20386;-76
2023/05/26 10:35:34;;;;;;;13.75;10.48;;;29.20;99.90;;;;;;6303297;22;20397;-81
2023/05/26 10:38:02;;;;;;;19.02;11.30;;;27.80;99.90;;;;;;6302825;22;20650;-76
2023/05/26 10:40:40;;;;;;;13.23;9.93;;;27.60;99.90;;;;;;6276253;22;20409;-76
2023/05/26 10:43:18;;;;;;;14.48;9.90;;;27.30;99.90;;;;;;6276014;22;21007;-77
2023/05/26 10:45:55;;;;;;;17.40;11.02;;;27.30;99.90;;;;;;6277424;22;20367;-77
2023/05/26 10:48:24;;;;;;;13.27;9.73;;;26.70;99.90;;;;;;6277680;22;20365;-76
2023/05/26 10:50:59;;;;;;;11.95;9.43;;;27.20;99.90;;;;;;6276716;22;20362;-78
2023/05/26 10:53:29;;;;;;;12.82;9.23;;;26.50;99.90;;;;;;6303996;22;20760;-76
2023/05/26 10:55:58;;;;;;;12.27;9.00;;;26.60;99.90;;;;;;6275986;22;20358;-76
2023/05/26 10:58:29;;;;;;;13.32;9.20;;;27.60;99.90;;;;;;6302418;22;20365;-76
2023/05/26 11:00:59;;;;;;;14.07;8.68;;;28.50;99.90;;;;;;6275888;22;20449;-76
2023/05/26 11:03:45;;;;;;;13.40;8.30;;;27.00;99.90;;;;;;6302907;22;20409;-76
2023/05/26 11:06:13;;;;;;;10.82;8.30;;;26.50;99.90;;;;;;6254845;22;20350;-76
2023/05/26 11:08:46;;;;;;;13.25;8.63;;;26.00;99.90;;;;;;6275373;22;20363;-76
2023/05/26 11:11:14;;;;;;;13.18;9.38;;;26.20;99.90;;;;;;6302606;22;20374;-75
2023/05/26 11:13:46;;;;;;;11.43;8.20;;;26.40;99.90;;;;;;6275103;22;20428;-75
2023/05/26 11:16:20;;;;;;;12.52;8.52;;;26.10;99.90;;;;;;6302200;22;20359;-75
2023/05/26 11:18:53;;;;;;;13.40;9.20;;;26.50;99.90;;;;;;6302378;22;20343;-75
2023/05/26 11:21:25;;;;;;;11.35;8.13;;;26.80;99.90;;;;;;6302711;22;20685;-75
2023/05/26 11:23:53;;;;;;;12.60;8.80;;;26.60;99.90;;;;;;6303251;22;20327;-75
2023/05/26 11:26:21;;;;;;;12.38;8.70;;;26.40;99.90;;;;;;6275001;22;20358;-75
2023/05/26 11:28:47;;;;;;;12.90;8.30;;;26.60;99.90;;;;;;6301887;22;20461;-75
2023/05/26 11:31:17;;;;;;;10.90;8.73;;;27.00;99.90;;;;;;6302090;22;20460;-75
2023/05/26 11:33:44;;;;;;;10.57;7.53;;;26.10;99.90;;;;;;6301867;22;20412;-75
2023/05/26 11:36:12;;;;;;;12.60;8.52;;;27.20;99.90;;;;;;6302636;22;20339;-75
2023/05/26 11:38:39;;;;;;;12.48;7.60;;;26.00;99.90;;;;;;6274951;22;20432;-76
2023/05/26 11:41:06;;;;;;;10.70;8.50;;;25.90;99.90;;;;;;6301572;22;20386;-76
2023/05/26 11:43:33;;;;;;;13.30;8.30;;;26.30;99.90;;;;;;6302525;22;20382;-75
2023/05/26 11:46:02;;;;;;;13.50;8.70;;;26.20;99.90;;;;;;6274986;22;20426;-75
2023/05/26 11:48:35;;;;;;;10.77;8.48;;;26.50;99.90;;;;;;6274833;22;20355;-75
2023/05/26 11:51:04;;;;;;;13.48;9.40;;;26.50;99.90;;;;;;6302928;22;20358;-75
2023/05/26 11:53:30;;;;;;;12.25;8.60;;;26.00;99.90;;;;;;6274839;22;20421;-77
2023/05/26 11:56:07;;;;;;;12.68;8.45;;;26.00;99.90;;;;;;6301725;22;20477;-75
2023/05/26 11:58:35;;;;;;;12.82;8.32;;;26.10;99.90;;;;;;6249910;22;20406;-75
2023/05/26 12:01:01;;;;;;;9.98;7.60;;;25.90;99.90;;;;;;6274324;22;20389;-74
2023/05/26 12:03:27;;;;;;;11.80;8.20;;;25.90;99.90;;;;;;6273833;22;20423;-76
2023/05/26 12:06:07;;;;;;;10.50;7.73;;;26.30;99.90;;;;;;6274587;22;20363;-75
2023/05/26 12:08:53;;;;;;;10.40;8.35;;;26.70;99.90;;;;;;6274855;22;20376;-75
2023/05/26 12:11:22;;;;;;;12.45;8.30;;;26.70;99.90;;;;;;6273922;22;20367;-75
2023/05/26 12:13:54;;;;;;;11.27;8.98;;;26.60;99.90;;;;;;6274481;22;20756;-74
2023/05/26 12:16:22;;;;;;;12.27;8.23;;;26.50;99.90;;;;;;6274354;22;20362;-75
2023/05/26 12:18:51;;;;;;;11.95;8.32;;;26.40;99.90;;;;;;6274380;22;20366;-75
2023/05/26 12:21:17;;;;;;;13.82;8.20;;;26.30;99.90;;;;;;6274418;22;20801;-75
2023/05/26 12:23:42;;;;;;;15.50;9.20;;;26.40;99.90;;;;;;6301582;22;20374;-75
2023/05/26 12:26:22;;;;;;;12.13;9.30;;;26.60;99.90;;;;;;6274505;22;20528;-75
2023/05/26 12:29:09;;;;;;;12.93;9.47;;;26.50;99.90;;;;;;6302385;22;20354;-75
2023/05/26 12:31:45;;;;;;;11.02;8.63;;;26.40;99.90;;;;;;6274037;22;20381;-78
2023/05/26 12:34:23;;;;;;;12.27;9.10;;;26.80;99.90;;;;;;6274414;22;20832;-75
2023/05/26 12:36:49;;;;;;;17.38;9.98;;;26.70;99.90;;;;;;6301955;22;20700;-75
2023/05/26 12:39:16;;;;;;;12.85;8.40;;;26.90;99.90;;;;;;6302327;22;20447;-75
2023/05/26 12:41:45;;;;;;;12.35;8.73;;;26.30;99.90;;;;;;6301898;22;20370;-75